createdAt,value
2022-09-24T00:01:30.883Z,97343.53
2022-09-24T00:04:02.320Z,97342.00
2022-09-24T00:06:33.658Z,97333.44
2022-09-24T00:09:00.208Z,97331.44
2022-09-24T00:11:28.758Z,97319.16
2022-09-24T00:13:56.846Z,97301.75
2022-09-24T00:16:28.614Z,97312.00
2022-09-24T00:18:55.648Z,97319.19
2022-09-24T00:21:26.447Z,97309.84
2022-09-24T00:23:58.723Z,97317.19
2022-09-24T00:26:44.555Z,97307.72
2022-09-24T00:29:13.867Z,97298.38
2022-09-24T00:31:40.708Z,97299.75
2022-09-24T00:34:07.546Z,97305.22
2022-09-24T00:36:34.178Z,97303.91
2022-09-24T00:39:01.203Z,97309.56
2022-09-24T00:41:31.399Z,97309.09
2022-09-24T00:43:58.760Z,97314.47
2022-09-24T00:46:42.639Z,97310.50
2022-09-24T00:49:14.882Z,97313.22
2022-09-24T00:51:43.999Z,97312.94
2022-09-24T00:54:16.231Z,97303.88
2022-09-24T00:56:44.579Z,97291.13
2022-09-24T00:59:17.319Z,97279.47
2022-09-24T01:01:48.244Z,97261.75
2022-09-24T01:04:17.587Z,97272.44
2022-09-24T01:06:44.367Z,97258.09
2022-09-24T01:09:11.203Z,97260.38
2022-09-24T01:12:06.441Z,97264.69
2022-09-24T01:14:54.635Z,97274.50
2022-09-24T01:17:45.493Z,97266.38
2022-09-24T01:20:33.077Z,97267.94
2022-09-24T01:23:11.218Z,97261.03
2022-09-24T01:25:46.482Z,97264.41
2022-09-24T01:28:22.155Z,97251.56
2022-09-24T01:30:55.424Z,97245.09
2022-09-24T01:33:25.793Z,97245.19
2022-09-24T01:35:57.298Z,97246.78
2022-09-24T01:38:38.682Z,97247.34
2022-09-24T01:41:07.933Z,97222.78
2022-09-24T01:43:34.725Z,97219.47
2022-09-24T01:46:06.065Z,97215.63
2022-09-24T01:48:37.442Z,97214.22
2022-09-24T01:51:27.362Z,97219.09
2022-09-24T01:53:58.809Z,97216.13
2022-09-24T01:56:48.458Z,97217.16
2022-09-24T01:59:24.563Z,97211.44
2022-09-24T02:02:01.117Z,97213.38
2022-09-24T02:04:30.219Z,97213.00
2022-09-24T02:07:00.576Z,97208.72
2022-09-24T02:09:36.178Z,97194.97
2022-09-24T02:12:12.420Z,97191.91
2022-09-24T02:15:08.089Z,97183.72
2022-09-24T02:17:37.560Z,97177.31
2022-09-24T02:20:10.733Z,97166.19
2022-09-24T02:22:39.124Z,97171.63
2022-09-24T02:25:08.963Z,97177.16
2022-09-24T02:27:36.077Z,97177.31
2022-09-24T02:30:02.917Z,97174.59
2022-09-24T02:32:31.678Z,97174.47
2022-09-24T02:35:02.800Z,97179.81
2022-09-24T02:37:29.634Z,97182.13
2022-09-24T02:39:56.523Z,97188.47
2022-09-24T02:42:23.317Z,97180.50
2022-09-24T02:44:50.028Z,97179.81
2022-09-24T02:47:16.646Z,97188.75
2022-09-24T02:49:43.265Z,97182.66
2022-09-24T02:52:10.402Z,97180.94
2022-09-24T02:54:37.096Z,97183.41
2022-09-24T02:57:03.885Z,97179.94
2022-09-24T02:59:30.433Z,97173.75
2022-09-24T03:01:57.305Z,97149.63
2022-09-24T03:04:24.189Z,97146.81
2022-09-24T03:06:50.868Z,97148.38
2022-09-24T03:09:17.510Z,97161.31
2022-09-24T03:11:44.124Z,97171.63
2022-09-24T03:14:10.874Z,97165.66
2022-09-24T03:16:37.533Z,97158.09
2022-09-24T03:19:04.141Z,97150.66
2022-09-24T03:21:30.737Z,97134.31
2022-09-24T03:23:57.625Z,97124.72
2022-09-24T03:26:24.214Z,97113.59
2022-09-24T03:28:50.810Z,97113.75
2022-09-24T03:31:17.505Z,97110.50
2022-09-24T03:33:46.758Z,97098.59
2022-09-24T03:36:22.840Z,97086.94
2022-09-24T03:38:51.876Z,97084.59
2022-09-24T03:41:19.044Z,97084.72
2022-09-24T03:43:45.628Z,97088.16
2022-09-24T03:46:12.996Z,97081.25
2022-09-24T03:48:40.945Z,97097.00
2022-09-24T03:51:13.804Z,97095.31
2022-09-24T03:53:40.734Z,97098.81
2022-09-24T03:56:08.659Z,97096.84
2022-09-24T03:58:38.014Z,97105.72
2022-09-24T04:01:06.891Z,97110.03
2022-09-24T04:03:33.480Z,97113.06
2022-09-24T04:06:00.082Z,97105.91
2022-09-24T04:08:26.637Z,97111.31
2022-09-24T04:10:53.567Z,97112.94
2022-09-24T04:13:20.303Z,97107.94
2022-09-24T04:15:48.126Z,97111.75
2022-09-24T04:18:14.950Z,97115.09
2022-09-24T04:20:42.112Z,97117.69
2022-09-24T04:23:09.604Z,97115.16
2022-09-24T04:25:37.486Z,97112.13
2022-09-24T04:28:06.838Z,97113.06
2022-09-24T04:30:34.448Z,97112.88
2022-09-24T04:33:02.609Z,97115.34
2022-09-24T04:35:31.794Z,97114.59
2022-09-24T04:37:59.496Z,97105.94
2022-09-24T04:40:26.772Z,97118.91
2022-09-24T04:42:53.703Z,97118.53
2022-09-24T04:45:21.128Z,97106.38
2022-09-24T04:47:53.643Z,97113.94
2022-09-24T04:50:20.702Z,97108.16
2022-09-24T04:52:53.082Z,97098.69
2022-09-24T04:55:23.289Z,97093.41
2022-09-24T04:57:51.205Z,97092.50
2022-09-24T05:00:20.419Z,97097.56
2022-09-24T05:02:47.288Z,97096.06
2022-09-24T05:05:14.483Z,97088.56
2022-09-24T05:07:42.759Z,97083.56
2022-09-24T05:10:09.599Z,97070.66
2022-09-24T05:12:36.603Z,97066.75
2022-09-24T05:15:04.395Z,97069.44
2022-09-24T05:17:31.200Z,97059.56
2022-09-24T05:20:01.494Z,97060.00
2022-09-24T05:22:28.252Z,97056.41
2022-09-24T05:24:54.816Z,97050.81
2022-09-24T05:27:21.815Z,97041.78
2022-09-24T05:29:48.787Z,97040.13
2022-09-24T05:32:17.947Z,97046.59
2022-09-24T05:34:45.309Z,97046.78
2022-09-24T05:37:12.930Z,97042.25
2022-09-24T05:39:39.739Z,97041.28
2022-09-24T05:42:07.530Z,97049.94
2022-09-24T05:44:34.243Z,97058.69
2022-09-24T05:47:00.940Z,97063.31
2022-09-24T05:49:27.633Z,97068.69
2022-09-24T05:51:54.286Z,97072.81
2022-09-24T05:54:21.223Z,97075.25
2022-09-24T05:56:47.854Z,97080.72
2022-09-24T05:59:14.539Z,97087.50
2022-09-24T06:01:41.355Z,97086.72
2022-09-24T06:04:09.324Z,97095.44
2022-09-24T06:06:36.122Z,97094.97
2022-09-24T06:09:02.911Z,97099.84
2022-09-24T06:11:39.192Z,97096.31
2022-09-24T06:14:08.842Z,97092.38
2022-09-24T06:16:36.157Z,97086.09
2022-09-24T06:19:02.916Z,97083.00
2022-09-24T06:21:29.758Z,97072.66
2022-09-24T06:23:56.619Z,97067.50
2022-09-24T06:26:23.327Z,97071.63
2022-09-24T06:28:49.913Z,97070.75
2022-09-24T06:31:16.621Z,97063.13
2022-09-24T06:33:43.245Z,97064.00
2022-09-24T06:36:10.341Z,97057.78
2022-09-24T06:38:39.359Z,97057.94
2022-09-24T06:41:06.643Z,97055.13
2022-09-24T06:43:34.247Z,97060.41
2022-09-24T06:46:00.985Z,97070.72
2022-09-24T06:48:28.756Z,97073.34
2022-09-24T06:50:56.526Z,97082.53
2022-09-24T06:53:23.572Z,97078.63
2022-09-24T06:55:50.258Z,97087.94
2022-09-24T06:58:22.192Z,97099.66
2022-09-24T07:00:59.857Z,97100.16
2022-09-24T07:03:28.500Z,97102.03
2022-09-24T07:05:55.865Z,97109.22
2022-09-24T07:08:22.608Z,97134.63
2022-09-24T07:10:49.351Z,97198.28
2022-09-24T07:13:16.627Z,97170.78
2022-09-24T07:15:44.337Z,97167.72
2022-09-24T07:18:11.319Z,97143.03
2022-09-24T07:20:37.948Z,97148.84
2022-09-24T07:23:05.816Z,97141.88
2022-09-24T07:25:33.209Z,97141.00
2022-09-24T07:28:12.082Z,97141.63
2022-09-24T07:30:40.105Z,97148.16
2022-09-24T07:33:07.611Z,97145.69
2022-09-24T07:35:34.535Z,97153.56
2022-09-24T07:38:07.106Z,97148.19
2022-09-24T07:40:34.235Z,97156.63
2022-09-24T07:43:00.921Z,97172.06
2022-09-24T07:45:29.840Z,97182.44
2022-09-24T07:48:04.842Z,97179.19
2022-09-24T07:50:34.272Z,97201.00
2022-09-24T07:53:00.821Z,97183.28
2022-09-24T07:55:27.455Z,97165.88
2022-09-24T07:57:55.827Z,97166.09
2022-09-24T08:00:24.920Z,97179.06
2022-09-24T08:02:53.215Z,97203.91
2022-09-24T08:05:19.844Z,97184.38
2022-09-24T08:07:57.085Z,97203.59
2022-09-24T08:10:25.619Z,97204.56
2022-09-24T08:12:52.300Z,97207.97
2022-09-24T08:15:19.623Z,97210.19
2022-09-24T08:17:46.420Z,97243.91
2022-09-24T08:20:13.098Z,97319.47
2022-09-24T08:22:39.641Z,97308.72
2022-09-24T08:25:06.699Z,97290.59
2022-09-24T08:27:36.291Z,97324.41
2022-09-24T08:30:04.706Z,97308.19
2022-09-24T08:32:31.270Z,97261.16
2022-09-24T08:34:57.815Z,97279.91
2022-09-24T08:37:24.433Z,97290.97
2022-09-24T08:39:50.982Z,97321.44
2022-09-24T08:43:07.665Z,97309.16
2022-09-24T08:46:02.359Z,97335.34
2022-09-24T08:48:33.261Z,97330.41
2022-09-24T08:51:03.317Z,97324.50
2022-09-24T08:53:52.861Z,97335.81
2022-09-24T08:56:25.426Z,97374.78
2022-09-24T08:59:06.096Z,97369.44
2022-09-24T09:01:48.318Z,97439.50
2022-09-24T09:04:26.379Z,97469.72
2022-09-24T09:07:06.417Z,97446.44
2022-09-24T09:09:46.317Z,97475.44
2022-09-24T09:12:18.797Z,97480.31
2022-09-24T09:15:00.648Z,97484.03
2022-09-24T09:17:48.156Z,97517.72
2022-09-24T09:20:22.315Z,97530.88
2022-09-24T09:22:51.373Z,97534.56
2022-09-24T09:25:30.925Z,97602.06
2022-09-24T09:28:04.847Z,97588.72
2022-09-24T09:30:36.243Z,97560.22
2022-09-24T09:33:23.062Z,97580.22
2022-09-24T09:36:18.792Z,97561.00
2022-09-24T09:39:04.778Z,97580.59
2022-09-24T09:41:45.239Z,97575.81
2022-09-24T09:44:17.808Z,97622.06
2022-09-24T09:46:53.499Z,97617.41
2022-09-24T09:49:20.484Z,97643.81
2022-09-24T09:51:48.782Z,97623.81
2022-09-24T09:54:15.370Z,97569.75
2022-09-24T09:56:50.235Z,97598.69
2022-09-24T09:59:19.661Z,97622.16
2022-09-24T10:01:49.144Z,97644.75
2022-09-24T10:04:29.162Z,97593.09
2022-09-24T10:07:14.808Z,97622.63
2022-09-24T10:09:42.691Z,97626.63
2022-09-24T10:12:21.300Z,97623.53
2022-09-24T10:14:59.335Z,97611.75
2022-09-24T10:17:30.378Z,97598.88
2022-09-24T10:19:57.067Z,97592.88
2022-09-24T10:22:26.329Z,97570.97
2022-09-24T10:24:55.964Z,97579.50
2022-09-24T10:27:37.309Z,97546.47
2022-09-24T10:30:34.578Z,97571.19
2022-09-24T10:33:03.210Z,97556.53
2022-09-24T10:35:31.537Z,97567.69
2022-09-24T10:38:00.769Z,97611.31
2022-09-24T10:40:31.276Z,97590.63
2022-09-24T10:43:00.579Z,97616.44
2022-09-24T10:45:42.274Z,97594.81
2022-09-24T10:48:18.921Z,97620.34
2022-09-24T10:51:11.731Z,97616.97
2022-09-24T10:53:51.097Z,97626.94
2022-09-24T10:56:47.342Z,97679.44
2022-09-24T10:59:32.252Z,97647.53
2022-09-24T11:02:13.795Z,97655.50
2022-09-24T11:04:58.693Z,97679.38
2022-09-24T11:07:40.242Z,97667.84
2022-09-24T11:10:10.284Z,97669.69
2022-09-24T11:12:55.550Z,97645.28
2022-09-24T11:15:58.808Z,97669.34
2022-09-24T11:19:15.081Z,97656.16
2022-09-24T11:21:57.891Z,97657.09
2022-09-24T11:24:43.017Z,97645.44
2022-09-24T11:27:37.423Z,97646.94
2022-09-24T11:30:21.802Z,97649.22
2022-09-24T11:33:03.822Z,97658.72
2022-09-24T11:35:50.681Z,97644.59
2022-09-24T11:38:42.155Z,97642.63
2022-09-24T11:41:14.558Z,97643.19
2022-09-24T11:44:18.773Z,97655.03
2022-09-24T11:46:53.857Z,97659.94
2022-09-24T11:49:41.047Z,97643.69
2022-09-24T11:52:24.270Z,97648.66
2022-09-24T11:55:03.056Z,97648.31
2022-09-24T11:57:37.490Z,97649.81
2022-09-24T12:00:14.283Z,97654.34
2022-09-24T12:02:50.215Z,97649.44
2022-09-24T12:05:38.673Z,97642.06
2022-09-24T12:08:13.638Z,97646.88
2022-09-24T12:10:46.761Z,97644.13
2022-09-24T12:13:28.338Z,97646.06
2022-09-24T12:15:58.211Z,97642.44
2022-09-24T12:18:33.129Z,97630.94
2022-09-24T12:21:08.378Z,97625.84
2022-09-24T12:23:39.775Z,97613.91
2022-09-24T12:26:07.924Z,97628.19
2022-09-24T12:29:07.333Z,97626.13
2022-09-24T12:31:55.795Z,97627.03
2022-09-24T12:34:28.266Z,97622.97
2022-09-24T12:37:10.186Z,97627.94
2022-09-24T12:39:48.777Z,97622.84
2022-09-24T12:42:17.778Z,97620.56
2022-09-24T12:44:58.425Z,97610.03
2022-09-24T12:47:28.303Z,97602.09
2022-09-24T12:49:58.503Z,97612.75
2022-09-24T12:52:43.189Z,97606.09
2022-09-24T12:55:22.193Z,97601.81
2022-09-24T12:57:56.252Z,97589.88
2022-09-24T13:00:31.994Z,97601.88
2022-09-24T13:02:59.629Z,97587.84
2022-09-24T13:05:45.930Z,97605.19
2022-09-24T13:08:16.992Z,97600.25
2022-09-24T13:11:07.015Z,97596.97
2022-09-24T13:13:37.035Z,97594.72
2022-09-24T13:16:06.940Z,97583.91
2022-09-24T13:18:36.013Z,97588.50
2022-09-24T13:21:19.885Z,97588.16
2022-09-24T13:23:48.575Z,97586.88
2022-09-24T13:26:24.299Z,97589.38
2022-09-24T13:28:58.437Z,97576.31
2022-09-24T13:31:28.063Z,97574.69
2022-09-24T13:34:04.271Z,97598.75
2022-09-24T13:36:41.634Z,97576.34
2022-09-24T13:39:33.968Z,97590.00
2022-09-24T13:42:16.722Z,97568.75
2022-09-24T13:44:47.431Z,97583.09
2022-09-24T13:47:45.402Z,97589.56
2022-09-24T13:50:23.771Z,97587.28
2022-09-24T13:53:07.661Z,97583.34
2022-09-24T13:55:45.004Z,97584.09
2022-09-24T13:58:31.783Z,97558.25
2022-09-24T14:01:10.173Z,97565.41
2022-09-24T14:03:39.838Z,97582.13
2022-09-24T14:06:11.815Z,97566.25
2022-09-24T14:08:42.466Z,97561.84
2022-09-24T14:11:19.893Z,97578.91
2022-09-24T14:13:46.792Z,97559.34
2022-09-24T14:16:16.321Z,97575.78
2022-09-24T14:18:43.024Z,97576.56
2022-09-24T14:21:17.378Z,97550.06
2022-09-24T14:23:56.070Z,97560.22
2022-09-24T14:26:32.547Z,97552.06
2022-09-24T14:29:03.593Z,97542.03
2022-09-24T14:31:30.471Z,97542.38
2022-09-24T14:34:01.451Z,97554.28
2022-09-24T14:36:29.328Z,97549.03
2022-09-24T14:39:02.487Z,97546.59
2022-09-24T14:41:32.244Z,97544.31
2022-09-24T14:44:14.444Z,97521.28
2022-09-24T14:46:50.926Z,97496.06
2022-09-24T14:49:20.038Z,97483.72
2022-09-24T14:52:00.554Z,97485.22
2022-09-24T14:54:40.557Z,97464.75
2022-09-24T14:57:19.305Z,97482.56
2022-09-24T14:59:47.247Z,97466.53
2022-09-24T15:02:17.382Z,97504.09
2022-09-24T15:04:53.040Z,97468.66
2022-09-24T15:07:24.046Z,97524.31
2022-09-24T15:09:53.176Z,97470.78
2022-09-24T15:12:30.899Z,97477.72
2022-09-24T15:15:01.790Z,97492.97
2022-09-24T15:17:33.854Z,97497.25
2022-09-24T15:20:01.364Z,97479.81
2022-09-24T15:22:29.667Z,97470.28
2022-09-24T15:25:01.539Z,97482.25
2022-09-24T15:27:31.232Z,97511.81
2022-09-24T15:30:00.002Z,97478.75
2022-09-24T15:32:32.774Z,97490.44
2022-09-24T15:34:59.981Z,97481.34
2022-09-24T15:37:28.858Z,97463.09
2022-09-24T15:40:23.015Z,97505.41
2022-09-24T15:42:50.518Z,97512.25
2022-09-24T15:45:22.894Z,97488.03
2022-09-24T15:47:50.495Z,97471.50
2022-09-24T15:50:17.952Z,97462.25
2022-09-24T15:52:54.709Z,97474.97
2022-09-24T15:55:22.125Z,97467.25
2022-09-24T15:57:48.692Z,97467.78
2022-09-24T16:00:20.522Z,97461.69
2022-09-24T16:02:50.283Z,97462.16
2022-09-24T16:05:17.335Z,97443.81
2022-09-24T16:07:44.060Z,97380.38
2022-09-24T16:10:12.634Z,97356.88
2022-09-24T16:12:40.732Z,97340.97
2022-09-24T16:15:08.128Z,97328.59
2022-09-24T16:17:34.654Z,97312.53
2022-09-24T16:20:01.541Z,97296.41
2022-09-24T16:22:28.070Z,97258.88
2022-09-24T16:24:54.633Z,97242.75
2022-09-24T16:27:21.257Z,97240.19
2022-09-24T16:29:47.810Z,97208.03
2022-09-24T16:32:14.587Z,97182.63
2022-09-24T16:34:41.734Z,97181.34
2022-09-24T16:37:09.188Z,97163.00
2022-09-24T16:39:35.794Z,97166.31
2022-09-24T16:42:02.410Z,97154.03
2022-09-24T16:44:28.990Z,97136.94
2022-09-24T16:46:55.752Z,97120.34
2022-09-24T16:49:23.770Z,97102.13
2022-09-24T16:51:50.371Z,97093.25
2022-09-24T16:54:18.995Z,97098.50
2022-09-24T16:56:49.322Z,97088.94
2022-09-24T16:59:16.684Z,97079.59
2022-09-24T17:01:43.383Z,97054.78
2022-09-24T17:04:10.023Z,97052.59
2022-09-24T17:06:36.803Z,97048.97
2022-09-24T17:09:22.759Z,97045.66
2022-09-24T17:11:49.491Z,97039.97
2022-09-24T17:14:17.485Z,97029.91
2022-09-24T17:16:44.496Z,97011.69
2022-09-24T17:19:12.294Z,97012.13
2022-09-24T17:21:40.486Z,97008.09
2022-09-24T17:24:07.416Z,97022.22
2022-09-24T17:26:34.668Z,97022.22
2022-09-24T17:29:01.582Z,97020.72
2022-09-24T17:31:28.405Z,97031.50
2022-09-24T17:33:56.301Z,97035.41
2022-09-24T17:36:23.545Z,97047.09
2022-09-24T17:38:51.907Z,97038.00
2022-09-24T17:41:19.289Z,97040.63
2022-09-24T17:43:45.982Z,97044.19
2022-09-24T17:46:18.379Z,97039.72
2022-09-24T17:48:47.221Z,97047.47
2022-09-24T17:51:20.139Z,97042.56
2022-09-24T17:53:47.000Z,97046.09
2022-09-24T17:56:14.731Z,97048.06
2022-09-24T17:58:44.378Z,97045.00
2022-09-24T18:01:14.117Z,97050.47
2022-09-24T18:03:41.443Z,97043.94
2022-09-24T18:06:11.607Z,97044.25
2022-09-24T18:08:40.341Z,97044.06
2022-09-24T18:11:12.972Z,97031.31
2022-09-24T18:13:40.258Z,97015.09
2022-09-24T18:16:13.059Z,96993.34
2022-09-24T18:18:40.482Z,96986.38
2022-09-24T18:21:10.067Z,96982.31
2022-09-24T18:23:37.345Z,96960.84
2022-09-24T18:26:16.027Z,96962.81
2022-09-24T18:28:48.681Z,96964.66
2022-09-24T18:31:15.981Z,96957.28
2022-09-24T18:33:44.209Z,96954.38
2022-09-24T18:36:16.046Z,96957.72
2022-09-24T18:38:44.556Z,96949.47
2022-09-24T18:41:13.128Z,96942.97
2022-09-24T18:43:40.182Z,96941.34
2022-09-24T18:46:11.347Z,96935.38
2022-09-24T18:48:40.151Z,96931.56
2022-09-24T18:51:08.247Z,96932.34
2022-09-24T18:53:35.493Z,96931.34
2022-09-24T18:56:06.718Z,96931.56
2022-09-24T18:58:33.495Z,96929.75
2022-09-24T19:01:01.923Z,96935.63
2022-09-24T19:03:30.113Z,96934.13
2022-09-24T19:06:05.058Z,96919.19
2022-09-24T19:08:32.315Z,96919.19
2022-09-24T19:11:06.141Z,96920.19
2022-09-24T19:13:32.829Z,96912.38
2022-09-24T19:16:07.255Z,96918.53
2022-09-24T19:18:35.636Z,96924.72
2022-09-24T19:21:06.482Z,96907.78
2022-09-24T19:23:41.177Z,96893.75
2022-09-24T19:26:09.871Z,96889.06
2022-09-24T19:28:40.895Z,96887.19
2022-09-24T19:31:16.555Z,96886.75
2022-09-24T19:33:44.275Z,96891.97
2022-09-24T19:36:11.320Z,96882.34
2022-09-24T19:38:41.777Z,96881.19
2022-09-24T19:41:13.436Z,96885.91
2022-09-24T19:43:43.739Z,96886.25
2022-09-24T19:46:17.170Z,96881.13
2022-09-24T19:48:45.918Z,96880.94
2022-09-24T19:51:21.311Z,96882.94
2022-09-24T19:53:52.839Z,96893.25
2022-09-24T19:56:22.421Z,96887.13
2022-09-24T19:58:55.257Z,96886.78
2022-09-24T20:01:24.303Z,96885.66
2022-09-24T20:03:51.498Z,96890.63
2022-09-24T20:06:23.635Z,96887.97
2022-09-24T20:08:50.337Z,96894.50
2022-09-24T20:11:20.847Z,96901.94
2022-09-24T20:13:48.670Z,96888.38
2022-09-24T20:16:19.353Z,96876.19
2022-09-24T20:18:51.021Z,96874.38
2022-09-24T20:21:19.067Z,96859.78
2022-09-24T20:23:47.414Z,96863.25
2022-09-24T20:26:34.890Z,96857.19
2022-09-24T20:29:02.297Z,96856.41
2022-09-24T20:31:30.046Z,96853.06
2022-09-24T20:33:57.118Z,96847.16
2022-09-24T20:36:24.942Z,96843.72
2022-09-24T20:38:52.357Z,96844.72
2022-09-24T20:41:22.820Z,96844.28
2022-09-24T20:43:49.962Z,96842.31
2022-09-24T20:46:22.020Z,96837.19
2022-09-24T20:48:48.921Z,96839.50
2022-09-24T20:51:18.334Z,96831.66
2022-09-24T20:53:46.330Z,96834.78
2022-09-24T20:56:13.707Z,96824.59
2022-09-24T20:58:41.429Z,96832.31
2022-09-24T21:01:09.242Z,96830.56
2022-09-24T21:03:46.031Z,96831.88
2022-09-24T21:06:15.174Z,96827.34
2022-09-24T21:08:43.877Z,96822.78
2022-09-24T21:11:13.060Z,96828.09
2022-09-24T21:13:42.080Z,96831.34
2022-09-24T21:16:09.655Z,96835.41
2022-09-24T21:18:41.264Z,96831.28
2022-09-24T21:21:15.433Z,96837.38
2022-09-24T21:23:47.273Z,96834.78
2022-09-24T21:26:25.404Z,96839.66
2022-09-24T21:28:54.005Z,96832.47
2022-09-24T21:31:22.966Z,96820.31
2022-09-24T21:33:54.596Z,96821.16
2022-09-24T21:36:24.287Z,96817.06
2022-09-24T21:38:55.669Z,96815.34
2022-09-24T21:41:31.238Z,96821.09
2022-09-24T21:43:58.060Z,96824.22
2022-09-24T21:46:26.663Z,96816.31
2022-09-24T21:48:54.961Z,96816.91
2022-09-24T21:51:22.255Z,96819.97
2022-09-24T21:53:49.273Z,96822.22
2022-09-24T21:56:18.800Z,96826.00
2022-09-24T21:58:46.483Z,96827.84
2022-09-24T22:01:18.380Z,96819.31
2022-09-24T22:03:48.191Z,96820.06
2022-09-24T22:06:15.318Z,96819.41
2022-09-24T22:08:43.220Z,96812.38
2022-09-24T22:11:11.860Z,96819.34
2022-09-24T22:13:39.443Z,96814.31
2022-09-24T22:16:11.033Z,96811.91
2022-09-24T22:18:38.681Z,96812.66
2022-09-24T22:21:10.498Z,96811.47
2022-09-24T22:23:37.694Z,96809.84
2022-09-24T22:26:05.576Z,96817.56
2022-09-24T22:28:32.685Z,96808.66
2022-09-24T22:31:05.117Z,96801.91
2022-09-24T22:33:50.873Z,96808.59
2022-09-24T22:36:17.463Z,96809.94
2022-09-24T22:38:43.975Z,96812.00
2022-09-24T22:41:12.202Z,96821.78
2022-09-24T22:43:39.656Z,96813.28
2022-09-24T22:46:09.884Z,96808.78
2022-09-24T22:48:37.129Z,96815.78
2022-09-24T22:51:04.900Z,96828.31
2022-09-24T22:53:36.464Z,96817.44
2022-09-24T22:56:10.670Z,96821.00
2022-09-24T22:58:39.992Z,96819.69
2022-09-24T23:01:10.936Z,96815.72
2022-09-24T23:03:38.332Z,96811.00
2022-09-24T23:06:06.456Z,96809.69
2022-09-24T23:08:34.705Z,96799.69
2022-09-24T23:11:17.898Z,96800.44
2022-09-24T23:13:46.556Z,96803.72
2022-09-24T23:16:17.657Z,96798.50
2022-09-24T23:18:48.743Z,96796.13
2022-09-24T23:21:17.340Z,96799.50
2022-09-24T23:23:44.536Z,96799.84
2022-09-24T23:26:17.241Z,96795.34
2022-09-24T23:28:46.916Z,96801.03
2022-09-24T23:31:14.865Z,96796.66
2022-09-24T23:33:42.353Z,96797.75
2022-09-24T23:36:11.291Z,96803.94
2022-09-24T23:38:38.114Z,96807.72
2022-09-24T23:41:05.433Z,96811.94
2022-09-24T23:43:33.318Z,96817.06
2022-09-24T23:46:00.309Z,96820.25
2022-09-24T23:48:28.042Z,96818.31
2022-09-24T23:50:55.244Z,96826.13
2022-09-24T23:53:22.113Z,96825.41
2022-09-24T23:55:49.514Z,96820.91
2022-09-24T23:58:18.159Z,96821.59
